Terminal Aerodrome Forecast
Issued by NWS New Orleans/Baton Rouge, LA

Home | Current Version | Previous Version | Text Only | Print | Product List | Glossary On
Versions: 1 2 3 4 5 6 7 8 9 10 11 12 13
000
FTUS44 KLIX 251127
TAFNEW
TAF
KNEW 251127Z 2512/2612 15006KT P6SM BKN150
     FM251600 15008KT P6SM SCT025 BKN050
     FM251800 12010KT P6SM SCT030 BKN080
     FM260500 15008KT P6SM BKN250=

USA.gov is the U.S. government's official web portal to all federal, state and local government web resources and services.